Time;durP1;ratioP1;P1;durP2;ratioP2;P2;SDS_P1;SDS_P2;PMS_P1;PMS_P2;Temp;Humidity;BMP_temperature;BMP_pressure;BME280_temperature;BME280_humidity;BME280_pressure;Samples;Min_cycle;Max_cycle;Signal;HPM_P1;HPM_P2
2024/02/23 00:01:00;;;;;;;0.40;0.40;;;;;;;;;;5076898;28;20076;-64
2024/02/23 00:03:28;;;;;;;0.40;0.40;;;;;;;;;;5069229;28;20047;-64
2024/02/23 00:05:59;;;;;;;0.43;0.43;;;;;;;;;;5072876;28;20068;-63
2024/02/23 00:08:27;;;;;;;0.43;0.40;;;;;;;;;;5100539;28;20101;-64
2024/02/23 00:10:55;;;;;;;0.30;0.30;;;;;;;;;;5093078;28;20576;-62
2024/02/23 00:13:24;;;;;;;0.30;0.30;;;;;;;;;;5098673;28;20075;-66
2024/02/23 00:15:52;;;;;;;0.30;0.30;;;;;;;;;;5091846;28;20558;-66
2024/02/23 00:18:21;;;;;;;0.38;0.38;;;;;;;;;;5090219;28;20082;-66
2024/02/23 00:20:49;;;;;;;0.32;0.32;;;;;;;;;;5099238;28;20048;-64
2024/02/23 00:23:20;;;;;;;0.30;0.30;;;;;;;;;;5088615;28;20119;-64
2024/02/23 00:25:48;;;;;;;0.32;0.32;;;;;;;;;;5092796;28;20489;-63
2024/02/23 00:28:16;;;;;;;0.75;0.40;;;;;;;;;;5095035;28;20283;-67
2024/02/23 00:30:45;;;;;;;0.30;0.30;;;;;;;;;;5089359;28;20101;-66
2024/02/23 00:33:13;;;;;;;0.35;0.30;;;;;;;;;;5092516;28;20044;-65
2024/02/23 00:35:42;;;;;;;0.40;0.40;;;;;;;;;;5105713;28;20105;-62
2024/02/23 00:38:11;;;;;;;1.08;0.70;;;;;;;;;;5087387;28;20076;-64
2024/02/23 00:40:40;;;;;;;0.40;0.40;;;;;;;;;;5091522;28;20035;-66
2024/02/23 00:43:09;;;;;;;0.30;0.30;;;;;;;;;;5096118;28;20135;-65
2024/02/23 00:45:37;;;;;;;0.40;0.40;;;;;;;;;;5105905;28;20048;-64
2024/02/23 00:48:06;;;;;;;0.30;0.30;;;;;;;;;;5087451;28;20072;-64
2024/02/23 00:50:35;;;;;;;0.30;0.30;;;;;;;;;;5086228;28;20052;-64
2024/02/23 00:53:03;;;;;;;0.40;0.40;;;;;;;;;;5088629;28;20040;-64
2024/02/23 00:55:31;;;;;;;0.50;0.40;;;;;;;;;;5095236;28;20048;-64
2024/02/23 00:58:01;;;;;;;0.43;0.43;;;;;;;;;;5092577;28;20163;-64
2024/02/23 01:00:29;;;;;;;0.52;0.40;;;;;;;;;;5090373;28;20071;-64
2024/02/23 01:02:59;;;;;;;0.40;0.40;;;;;;;;;;5088112;28;20051;-64
2024/02/23 01:05:28;;;;;;;0.30;0.30;;;;;;;;;;5098072;28;20520;-65
2024/02/23 01:07:56;;;;;;;0.40;0.40;;;;;;;;;;5085902;28;20634;-66
2024/02/23 01:10:24;;;;;;;0.40;0.40;;;;;;;;;;5092017;28;20052;-64
2024/02/23 01:12:53;;;;;;;0.40;0.40;;;;;;;;;;5089822;28;20048;-62
2024/02/23 01:15:22;;;;;;;0.57;0.40;;;;;;;;;;5089211;28;20048;-65
2024/02/23 01:17:51;;;;;;;0.30;0.30;;;;;;;;;;5095542;28;20102;-65
2024/02/23 01:20:19;;;;;;;0.30;0.30;;;;;;;;;;5100118;28;20515;-66
2024/02/23 01:22:47;;;;;;;0.50;0.50;;;;;;;;;;5088408;28;20122;-65
2024/02/23 01:25:16;;;;;;;0.30;0.30;;;;;;;;;;5089519;28;20056;-66
2024/02/23 01:27:45;;;;;;;0.40;0.40;;;;;;;;;;5083967;28;20051;-65
2024/02/23 01:30:13;;;;;;;0.40;0.40;;;;;;;;;;5097975;28;20067;-68
2024/02/23 01:32:43;;;;;;;0.40;0.40;;;;;;;;;;5085709;28;20040;-66
2024/02/23 01:35:12;;;;;;;0.40;0.40;;;;;;;;;;5080165;28;20576;-64
2024/02/23 01:37:40;;;;;;;0.40;0.40;;;;;;;;;;5100112;28;20097;-62
2024/02/23 01:40:09;;;;;;;0.30;0.30;;;;;;;;;;5085418;28;20513;-63
2024/02/23 01:42:37;;;;;;;0.40;0.40;;;;;;;;;;5088148;28;20048;-65
2024/02/23 01:45:07;;;;;;;1.35;0.30;;;;;;;;;;5088887;28;20503;-66
2024/02/23 01:47:35;;;;;;;0.40;0.40;;;;;;;;;;5092089;28;20040;-64
2024/02/23 01:50:07;;;;;;;0.40;0.40;;;;;;;;;;5087090;28;20519;-64
2024/02/23 01:52:36;;;;;;;0.40;0.40;;;;;;;;;;5083399;28;20041;-63
2024/02/23 01:55:05;;;;;;;0.30;0.30;;;;;;;;;;5098126;28;20047;-65
2024/02/23 01:57:34;;;;;;;0.55;0.40;;;;;;;;;;5092245;28;20133;-67
2024/02/23 02:00:18;;;;;;;0.30;0.30;;;;;;;;;;5087705;28;20481;-64
2024/02/23 02:02:46;;;;;;;0.45;0.45;;;;;;;;;;5087710;28;20053;-66
2024/02/23 02:05:16;;;;;;;0.30;0.30;;;;;;;;;;5091454;28;20137;-64
2024/02/23 02:07:45;;;;;;;0.30;0.30;;;;;;;;;;5097465;28;20052;-65
2024/02/23 02:10:13;;;;;;;0.40;0.40;;;;;;;;;;5080677;28;20398;-65
2024/02/23 02:12:41;;;;;;;0.50;0.40;;;;;;;;;;5101473;28;20456;-65
2024/02/23 02:15:10;;;;;;;0.40;0.40;;;;;;;;;;5095524;28;20121;-64
2024/02/23 02:17:38;;;;;;;0.38;0.38;;;;;;;;;;5095005;28;20090;-65
2024/02/23 02:20:10;;;;;;;0.40;0.40;;;;;;;;;;5091786;28;20122;-68
2024/02/23 02:22:39;;;;;;;0.30;0.30;;;;;;;;;;5100991;28;20116;-67
2024/02/23 02:25:08;;;;;;;0.40;0.40;;;;;;;;;;5101160;28;20127;-65
2024/02/23 02:27:37;;;;;;;0.30;0.30;;;;;;;;;;5084939;28;20051;-65
2024/02/23 02:30:05;;;;;;;0.40;0.40;;;;;;;;;;5090454;28;20048;-67
2024/02/23 02:32:34;;;;;;;0.30;0.30;;;;;;;;;;5102457;28;20118;-63
2024/02/23 02:35:05;;;;;;;0.30;0.30;;;;;;;;;;5093455;28;20083;-68
2024/02/23 02:37:33;;;;;;;0.30;0.30;;;;;;;;;;5103004;28;20046;-71
2024/02/23 02:40:03;;;;;;;0.38;0.38;;;;;;;;;;5091164;28;20524;-65
2024/02/23 02:42:32;;;;;;;0.30;0.30;;;;;;;;;;5100713;28;20063;-69
2024/02/23 02:45:00;;;;;;;0.30;0.30;;;;;;;;;;5102300;28;20112;-66
2024/02/23 02:47:29;;;;;;;0.30;0.30;;;;;;;;;;5091386;28;20043;-67
2024/02/23 02:49:58;;;;;;;0.40;0.40;;;;;;;;;;5100237;28;20048;-64
2024/02/23 02:52:26;;;;;;;0.40;0.40;;;;;;;;;;5096720;28;20036;-64
2024/02/23 02:54:55;;;;;;;0.40;0.40;;;;;;;;;;5097795;28;20055;-64
2024/02/23 02:57:24;;;;;;;0.30;0.30;;;;;;;;;;5097750;28;20067;-66
2024/02/23 02:59:53;;;;;;;0.30;0.30;;;;;;;;;;5090382;28;20147;-67
2024/02/23 03:02:21;;;;;;;0.35;0.35;;;;;;;;;;5089024;28;20503;-68
2024/02/23 03:04:50;;;;;;;0.40;0.40;;;;;;;;;;5089687;28;20047;-65
2024/02/23 03:07:18;;;;;;;0.68;0.40;;;;;;;;;;5096505;28;20056;-65
2024/02/23 03:09:47;;;;;;;0.45;0.45;;;;;;;;;;5093846;28;20052;-65
2024/02/23 03:12:15;;;;;;;0.50;0.40;;;;;;;;;;5093351;28;20097;-66
2024/02/23 03:14:45;;;;;;;0.40;0.40;;;;;;;;;;5109886;28;20059;-63
2024/02/23 03:17:13;;;;;;;0.40;0.40;;;;;;;;;;5095467;28;20416;-65
2024/02/23 03:19:41;;;;;;;0.30;0.30;;;;;;;;;;5096425;28;20125;-65
2024/02/23 03:22:10;;;;;;;0.55;0.40;;;;;;;;;;5102510;28;20036;-65
2024/02/23 03:24:38;;;;;;;0.40;0.40;;;;;;;;;;5089272;28;20093;-65
2024/02/23 03:27:07;;;;;;;0.40;0.40;;;;;;;;;;5092006;28;20051;-64
2024/02/23 03:29:35;;;;;;;0.30;0.30;;;;;;;;;;5086999;28;20044;-65
2024/02/23 03:32:05;;;;;;;0.32;0.32;;;;;;;;;;5093920;28;20393;-66
2024/02/23 03:34:34;;;;;;;0.45;0.40;;;;;;;;;;5090597;28;20044;-66
2024/02/23 03:37:03;;;;;;;0.45;0.45;;;;;;;;;;5085563;28;20075;-64
2024/02/23 03:39:32;;;;;;;0.30;0.30;;;;;;;;;;5097681;28;20086;-65
2024/02/23 03:42:00;;;;;;;1.00;0.55;;;;;;;;;;5097436;28;20431;-65
2024/02/23 03:44:29;;;;;;;1.75;0.50;;;;;;;;;;5092373;28;20044;-67
2024/02/23 03:46:57;;;;;;;0.40;0.40;;;;;;;;;;5104210;28;20054;-67
2024/02/23 03:49:27;;;;;;;0.45;0.45;;;;;;;;;;5102458;28;20405;-65
2024/02/23 03:51:55;;;;;;;0.40;0.40;;;;;;;;;;5094628;28;20154;-65
2024/02/23 03:54:24;;;;;;;0.65;0.40;;;;;;;;;;5101298;28;20075;-64
2024/02/23 03:56:52;;;;;;;0.40;0.40;;;;;;;;;;5099064;28;20052;-63
2024/02/23 03:59:20;;;;;;;0.40;0.40;;;;;;;;;;5089713;28;20044;-67
2024/02/23 04:01:49;;;;;;;0.40;0.40;;;;;;;;;;5092414;28;20052;-67
2024/02/23 04:04:17;;;;;;;0.40;0.40;;;;;;;;;;5089509;28;20052;-68
2024/02/23 04:06:47;;;;;;;0.40;0.40;;;;;;;;;;5091168;28;20063;-64
2024/02/23 04:09:15;;;;;;;0.40;0.40;;;;;;;;;;5091104;28;20101;-65
2024/02/23 04:11:44;;;;;;;0.40;0.40;;;;;;;;;;5093415;28;20052;-65
2024/02/23 04:14:12;;;;;;;0.40;0.40;;;;;;;;;;5094305;28;20040;-67
2024/02/23 04:16:41;;;;;;;0.40;0.40;;;;;;;;;;5095746;28;20484;-66
2024/02/23 04:19:09;;;;;;;0.40;0.40;;;;;;;;;;5090144;28;20056;-65
2024/02/23 04:21:40;;;;;;;0.57;0.40;;;;;;;;;;5091326;28;20484;-64
2024/02/23 04:24:10;;;;;;;0.40;0.40;;;;;;;;;;5092489;28;20105;-66
2024/02/23 04:26:39;;;;;;;0.40;0.40;;;;;;;;;;5105689;28;20100;-66
2024/02/23 04:29:08;;;;;;;0.40;0.40;;;;;;;;;;5090060;28;20047;-65
2024/02/23 04:31:38;;;;;;;0.63;0.50;;;;;;;;;;5095699;28;20123;-64
2024/02/23 04:34:06;;;;;;;0.40;0.40;;;;;;;;;;5088500;28;20048;-64
2024/02/23 04:36:34;;;;;;;0.40;0.40;;;;;;;;;;5099551;28;20460;-64
2024/02/23 04:39:04;;;;;;;0.40;0.40;;;;;;;;;;5097386;28;20039;-64
2024/02/23 04:41:33;;;;;;;1.27;0.50;;;;;;;;;;5098958;28;20130;-64
2024/02/23 04:44:02;;;;;;;0.40;0.40;;;;;;;;;;5096342;28;20136;-65
2024/02/23 04:46:30;;;;;;;0.45;0.45;;;;;;;;;;5099511;28;20071;-65
2024/02/23 04:48:59;;;;;;;0.68;0.45;;;;;;;;;;5089848;28;20129;-65
2024/02/23 04:51:27;;;;;;;0.45;0.40;;;;;;;;;;5087415;28;20052;-64
2024/02/23 04:53:56;;;;;;;1.30;0.50;;;;;;;;;;5099042;28;20082;-64
2024/02/23 04:56:24;;;;;;;0.35;0.35;;;;;;;;;;5100291;28;20471;-64
2024/02/23 04:58:54;;;;;;;0.40;0.40;;;;;;;;;;5094754;28;20130;-64
2024/02/23 05:01:22;;;;;;;0.52;0.40;;;;;;;;;;5084870;28;20036;-65
2024/02/23 05:03:52;;;;;;;0.47;0.47;;;;;;;;;;5084015;28;20533;-67
2024/02/23 05:06:20;;;;;;;0.40;0.40;;;;;;;;;;5090381;28;20116;-65
2024/02/23 05:08:48;;;;;;;0.40;0.40;;;;;;;;;;5088195;28;20043;-65
2024/02/23 05:11:17;;;;;;;0.68;0.40;;;;;;;;;;5087163;28;20068;-67
2024/02/23 05:13:45;;;;;;;0.40;0.40;;;;;;;;;;5099636;28;20051;-65
2024/02/23 05:16:16;;;;;;;0.40;0.40;;;;;;;;;;5093257;28;20075;-65
2024/02/23 05:18:46;;;;;;;0.43;0.40;;;;;;;;;;5079393;28;20274;-67
2024/02/23 05:21:16;;;;;;;0.40;0.40;;;;;;;;;;5090312;28;20059;-65
2024/02/23 05:23:46;;;;;;;0.50;0.50;;;;;;;;;;5096484;28;20051;-64
2024/02/23 05:26:14;;;;;;;0.40;0.40;;;;;;;;;;5093548;28;20075;-65
2024/02/23 05:28:43;;;;;;;0.40;0.40;;;;;;;;;;5097218;28;20143;-70
2024/02/23 05:31:11;;;;;;;0.45;0.45;;;;;;;;;;5089148;28;20040;-66
2024/02/23 05:33:41;;;;;;;0.40;0.40;;;;;;;;;;5089137;28;20156;-65
2024/02/23 05:36:10;;;;;;;0.40;0.40;;;;;;;;;;5087973;28;20101;-67
2024/02/23 05:38:38;;;;;;;0.50;0.50;;;;;;;;;;5089125;28;20067;-67
2024/02/23 05:41:06;;;;;;;0.40;0.40;;;;;;;;;;5092826;28;20079;-68
2024/02/23 05:43:35;;;;;;;2.50;0.40;;;;;;;;;;5093022;28;20136;-65
2024/02/23 05:46:04;;;;;;;0.40;0.40;;;;;;;;;;5089171;28;20143;-65
2024/02/23 05:48:32;;;;;;;0.40;0.40;;;;;;;;;;5090623;28;20068;-65
2024/02/23 05:51:02;;;;;;;0.40;0.40;;;;;;;;;;5098475;28;20185;-67
2024/02/23 05:53:32;;;;;;;1.58;0.40;;;;;;;;;;5089483;28;20316;-67
2024/02/23 05:56:01;;;;;;;0.35;0.35;;;;;;;;;;5089317;28;20037;-72
2024/02/23 05:58:29;;;;;;;0.43;0.43;;;;;;;;;;5091513;28;20485;-64
2024/02/23 06:00:58;;;;;;;0.40;0.40;;;;;;;;;;5091871;28;20083;-65
2024/02/23 06:03:26;;;;;;;1.48;0.45;;;;;;;;;;5083907;28;20159;-64
2024/02/23 06:05:55;;;;;;;0.47;0.47;;;;;;;;;;5089375;28;20048;-66
2024/02/23 06:08:24;;;;;;;0.40;0.40;;;;;;;;;;5065988;28;20048;-64
2024/02/23 06:10:53;;;;;;;0.50;0.50;;;;;;;;;;5071167;28;20140;-72
2024/02/23 06:13:21;;;;;;;0.40;0.40;;;;;;;;;;5068363;28;20127;-65
2024/02/23 06:15:50;;;;;;;0.50;0.50;;;;;;;;;;5068328;28;20048;-65
2024/02/23 06:18:18;;;;;;;0.43;0.43;;;;;;;;;;5073516;28;20129;-66
2024/02/23 06:20:47;;;;;;;0.30;0.30;;;;;;;;;;5069411;28;20347;-66
2024/02/23 06:23:15;;;;;;;0.32;0.32;;;;;;;;;;5076999;28;20109;-65
2024/02/23 06:25:45;;;;;;;0.93;0.55;;;;;;;;;;5067304;28;20499;-64
2024/02/23 06:28:14;;;;;;;1.48;0.43;;;;;;;;;;5070954;28;20133;-63
2024/02/23 06:30:43;;;;;;;0.70;0.50;;;;;;;;;;5071598;28;20056;-67
2024/02/23 06:33:11;;;;;;;0.45;0.45;;;;;;;;;;5067357;28;20090;-67
2024/02/23 06:35:40;;;;;;;0.50;0.50;;;;;;;;;;5071862;28;20041;-65
2024/02/23 06:38:09;;;;;;;0.60;0.60;;;;;;;;;;5072027;28;20094;-72
2024/02/23 06:40:38;;;;;;;0.60;0.60;;;;;;;;;;5077588;28;20049;-64
2024/02/23 06:43:20;;;;;;;0.63;0.40;;;;;;;;;;5071970;28;20044;-67
2024/02/23 06:45:50;;;;;;;0.55;0.40;;;;;;;;;;5071074;28;20501;-65
2024/02/23 06:48:19;;;;;;;0.40;0.40;;;;;;;;;;5073458;28;20429;-67
2024/02/23 06:50:47;;;;;;;0.40;0.40;;;;;;;;;;5053273;28;20049;-67
2024/02/23 06:53:16;;;;;;;0.60;0.40;;;;;;;;;;5070232;28;20048;-67
2024/02/23 06:55:44;;;;;;;0.68;0.40;;;;;;;;;;5071539;28;20044;-66
2024/02/23 06:58:14;;;;;;;0.52;0.52;;;;;;;;;;5072775;28;20099;-65
2024/02/23 07:00:44;;;;;;;0.60;0.50;;;;;;;;;;5070612;28;20106;-65
2024/02/23 07:03:12;;;;;;;0.57;0.57;;;;;;;;;;5074260;28;20041;-66
2024/02/23 07:05:42;;;;;;;0.40;0.40;;;;;;;;;;5069294;28;20068;-65
2024/02/23 07:08:10;;;;;;;0.50;0.47;;;;;;;;;;5090557;28;20056;-66
2024/02/23 07:10:39;;;;;;;2.30;0.60;;;;;;;;;;5086467;28;20048;-67
2024/02/23 07:13:08;;;;;;;0.70;0.52;;;;;;;;;;5091638;28;20459;-68
2024/02/23 07:15:37;;;;;;;1.10;0.55;;;;;;;;;;5091848;28;20051;-66
2024/02/23 07:18:08;;;;;;;0.50;0.50;;;;;;;;;;5091360;28;20052;-65
2024/02/23 07:20:37;;;;;;;0.45;0.45;;;;;;;;;;5090552;28;20068;-66
2024/02/23 07:23:06;;;;;;;0.40;0.40;;;;;;;;;;5090215;28;20101;-65
2024/02/23 07:25:34;;;;;;;0.45;0.45;;;;;;;;;;5090569;28;20056;-64
2024/02/23 07:28:03;;;;;;;0.85;0.50;;;;;;;;;;5089718;28;20049;-65
2024/02/23 07:30:31;;;;;;;0.65;0.50;;;;;;;;;;5087431;28;20076;-66
2024/02/23 07:33:00;;;;;;;0.55;0.55;;;;;;;;;;5086334;28;20048;-66
2024/02/23 07:35:30;;;;;;;0.77;0.50;;;;;;;;;;5089566;28;20411;-65
2024/02/23 07:37:59;;;;;;;0.50;0.50;;;;;;;;;;5098079;28;20040;-65
2024/02/23 07:40:28;;;;;;;1.95;0.50;;;;;;;;;;5089658;28;20124;-64
2024/02/23 07:42:56;;;;;;;0.80;0.60;;;;;;;;;;5088521;28;20051;-69
2024/02/23 07:45:25;;;;;;;0.73;0.57;;;;;;;;;;5088138;28;20036;-65
2024/02/23 07:47:54;;;;;;;0.95;0.75;;;;;;;;;;5089929;28;20044;-65
2024/02/23 07:50:22;;;;;;;0.70;0.52;;;;;;;;;;5089564;28;20052;-65
2024/02/23 07:52:52;;;;;;;0.88;0.75;;;;;;;;;;5086540;28;20062;-60
2024/02/23 07:55:21;;;;;;;0.88;0.88;;;;;;;;;;5090678;28;20040;-61
2024/02/23 07:57:50;;;;;;;0.68;0.52;;;;;;;;;;5090070;28;20139;-61
2024/02/23 08:00:19;;;;;;;0.63;0.47;;;;;;;;;;5088965;28;20066;-62
2024/02/23 08:02:50;;;;;;;1.35;0.50;;;;;;;;;;5088349;28;20079;-61
2024/02/23 08:05:19;;;;;;;0.68;0.50;;;;;;;;;;5084567;28;20458;-63
2024/02/23 08:07:47;;;;;;;0.55;0.50;;;;;;;;;;5101198;28;20056;-62
2024/02/23 08:10:17;;;;;;;0.65;0.60;;;;;;;;;;5096706;28;20044;-63
2024/02/23 08:12:46;;;;;;;1.15;0.50;;;;;;;;;;5092595;28;20059;-62
2024/02/23 08:15:15;;;;;;;0.55;0.50;;;;;;;;;;5104141;28;20121;-62
2024/02/23 08:17:43;;;;;;;1.77;0.60;;;;;;;;;;5094950;28;20043;-61
2024/02/23 08:20:12;;;;;;;0.98;0.50;;;;;;;;;;5101335;28;20044;-64
2024/02/23 08:22:40;;;;;;;0.85;0.50;;;;;;;;;;5097287;28;20048;-62
2024/02/23 08:25:09;;;;;;;0.50;0.50;;;;;;;;;;5099350;28;20128;-61
2024/02/23 08:27:43;;;;;;;1.48;0.40;;;;;;;;;;5096667;28;20050;-61
2024/02/23 08:30:12;;;;;;;0.85;0.60;;;;;;;;;;5095482;28;20509;-61
2024/02/23 08:32:41;;;;;;;0.60;0.57;;;;;;;;;;5089668;28;20484;-63
2024/02/23 08:35:09;;;;;;;0.88;0.60;;;;;;;;;;5105018;28;20056;-63
2024/02/23 08:37:38;;;;;;;1.70;0.60;;;;;;;;;;5105765;28;20573;-62
2024/02/23 08:40:08;;;;;;;0.50;0.50;;;;;;;;;;5093757;28;20040;-61
2024/02/23 08:42:37;;;;;;;1.30;0.50;;;;;;;;;;5100043;28;20044;-63
2024/02/23 08:45:07;;;;;;;0.50;0.50;;;;;;;;;;5102594;28;20474;-62
2024/02/23 08:47:36;;;;;;;1.95;0.68;;;;;;;;;;5089931;28;20218;-61
2024/02/23 08:50:05;;;;;;;2.40;0.95;;;;;;;;;;5099064;28;20047;-62
2024/02/23 08:52:33;;;;;;;0.77;0.50;;;;;;;;;;5098441;28;20127;-61
2024/02/23 08:55:02;;;;;;;2.30;0.60;;;;;;;;;;5100279;28;20048;-62
2024/02/23 08:57:30;;;;;;;0.90;0.50;;;;;;;;;;5099790;28;20524;-63
2024/02/23 08:59:58;;;;;;;1.30;0.63;;;;;;;;;;5088140;28;20398;-64
2024/02/23 09:02:28;;;;;;;2.17;0.60;;;;;;;;;;5090752;28;20058;-62
2024/02/23 09:04:57;;;;;;;2.05;0.60;;;;;;;;;;5094281;28;20059;-63
2024/02/23 09:07:25;;;;;;;1.17;0.60;;;;;;;;;;5091673;28;20079;-62
2024/02/23 09:09:54;;;;;;;1.48;0.43;;;;;;;;;;5088451;28;20062;-62
2024/02/23 09:12:23;;;;;;;0.80;0.65;;;;;;;;;;5089058;28;20295;-62
2024/02/23 09:14:51;;;;;;;0.68;0.55;;;;;;;;;;5088882;28;20079;-61
2024/02/23 09:17:20;;;;;;;1.17;0.60;;;;;;;;;;5089162;28;20040;-60
2024/02/23 09:19:50;;;;;;;0.85;0.68;;;;;;;;;;5087864;28;20389;-60
2024/02/23 09:22:19;;;;;;;1.15;0.75;;;;;;;;;;5088310;28;20063;-60
2024/02/23 09:24:47;;;;;;;1.17;0.80;;;;;;;;;;5089092;28;20333;-60
2024/02/23 09:27:15;;;;;;;1.38;0.60;;;;;;;;;;5087505;28;20700;-62
2024/02/23 09:29:44;;;;;;;2.08;0.70;;;;;;;;;;5087681;28;20105;-60
2024/02/23 09:32:12;;;;;;;0.57;0.57;;;;;;;;;;5082779;28;20152;-61
2024/02/23 09:34:41;;;;;;;1.30;0.70;;;;;;;;;;5080683;28;20050;-60
2024/02/23 09:37:11;;;;;;;0.60;0.50;;;;;;;;;;5089544;28;20129;-61
2024/02/23 09:39:39;;;;;;;0.63;0.57;;;;;;;;;;5083494;28;20118;-63
2024/02/23 09:42:10;;;;;;;1.15;0.50;;;;;;;;;;5089922;28;20085;-61
2024/02/23 09:44:38;;;;;;;1.13;0.52;;;;;;;;;;5088039;28;20043;-61
2024/02/23 09:47:10;;;;;;;5.18;1.55;;;;;;;;;;5089515;28;20048;-63
2024/02/23 09:49:40;;;;;;;4.35;0.60;;;;;;;;;;5085584;28;20493;-62
2024/02/23 09:52:09;;;;;;;0.55;0.40;;;;;;;;;;5088577;28;20594;-60
2024/02/23 09:54:39;;;;;;;0.80;0.52;;;;;;;;;;5088060;28;20396;-62
2024/02/23 09:57:09;;;;;;;3.17;0.60;;;;;;;;;;5087549;28;20056;-60
2024/02/23 09:59:38;;;;;;;2.00;0.60;;;;;;;;;;5081891;28;20079;-60
2024/02/23 10:02:09;;;;;;;0.63;0.55;;;;;;;;;;5087821;28;20055;-63
2024/02/23 10:04:39;;;;;;;2.63;0.50;;;;;;;;;;5086640;28;20040;-62
2024/02/23 10:07:08;;;;;;;0.82;0.60;;;;;;;;;;5076565;28;20143;-60
2024/02/23 10:09:36;;;;;;;1.25;0.60;;;;;;;;;;5070066;28;20102;-62
2024/02/23 10:12:07;;;;;;;1.15;0.60;;;;;;;;;;5072946;28;20097;-63
2024/02/23 10:14:36;;;;;;;0.43;0.40;;;;;;;;;;5072063;28;20055;-60
2024/02/23 10:17:06;;;;;;;3.40;0.60;;;;;;;;;;5068945;28;20470;-60
2024/02/23 10:19:36;;;;;;;1.10;0.50;;;;;;;;;;5062730;28;20044;-59
2024/02/23 10:22:04;;;;;;;0.50;0.50;;;;;;;;;;5068548;28;20048;-62
2024/02/23 10:24:33;;;;;;;1.02;0.55;;;;;;;;;;5066907;28;20094;-62
2024/02/23 10:27:02;;;;;;;0.77;0.57;;;;;;;;;;5067053;28;20551;-63
2024/02/23 10:29:32;;;;;;;0.73;0.60;;;;;;;;;;5061661;28;20294;-59
2024/02/23 10:32:03;;;;;;;2.60;0.50;;;;;;;;;;5062954;28;20087;-59
2024/02/23 10:34:32;;;;;;;1.15;0.70;;;;;;;;;;5072947;28;20482;-61
2024/02/23 10:37:01;;;;;;;0.50;0.50;;;;;;;;;;5071629;28;20052;-62
2024/02/23 10:39:31;;;;;;;1.23;0.70;;;;;;;;;;5070638;28;20382;-62
2024/02/23 10:42:01;;;;;;;1.88;0.60;;;;;;;;;;5071599;28;20420;-62
2024/02/23 10:44:30;;;;;;;0.55;0.55;;;;;;;;;;5072191;28;20048;-60
2024/02/23 10:47:00;;;;;;;2.25;0.60;;;;;;;;;;5072875;28;20132;-60
2024/02/23 10:49:29;;;;;;;1.92;0.60;;;;;;;;;;5075622;28;20052;-65
2024/02/23 10:51:58;;;;;;;0.40;0.40;;;;;;;;;;5060305;28;20051;-62
2024/02/23 10:54:26;;;;;;;1.33;0.50;;;;;;;;;;5076527;28;20662;-60
2024/02/23 10:56:56;;;;;;;0.43;0.43;;;;;;;;;;5075897;28;20409;-60
2024/02/23 10:59:25;;;;;;;1.08;0.45;;;;;;;;;;5062087;28;20044;-62
2024/02/23 11:01:56;;;;;;;1.20;0.60;;;;;;;;;;5069515;28;20055;-61
2024/02/23 11:04:27;;;;;;;0.40;0.40;;;;;;;;;;5068890;28;20045;-60
2024/02/23 11:06:58;;;;;;;0.75;0.50;;;;;;;;;;5086409;28;20051;-59
2024/02/23 11:09:27;;;;;;;1.05;0.52;;;;;;;;;;5087959;28;20047;-60
2024/02/23 11:11:56;;;;;;;0.50;0.50;;;;;;;;;;5090259;28;20043;-61
2024/02/23 11:14:33;;;;;;;1.65;0.70;;;;;;;;;;5089017;28;20441;-66
2024/02/23 11:17:02;;;;;;;1.92;0.57;;;;;;;;;;5086730;28;20127;-63
2024/02/23 11:19:35;;;;;;;2.78;0.50;;;;;;;;;;5092322;28;20118;-60
2024/02/23 11:22:05;;;;;;;1.20;0.50;;;;;;;;;;5089906;28;20453;-59
2024/02/23 11:24:44;;;;;;;0.40;0.40;;;;;;;;;;5088480;28;20060;-60
2024/02/23 11:27:17;;;;;;;0.47;0.47;;;;;;;;;;5089258;28;20043;-61
2024/02/23 11:29:47;;;;;;;2.38;0.63;;;;;;;;;;5091382;28;20077;-60
2024/02/23 11:32:15;;;;;;;1.73;0.68;;;;;;;;;;5090540;28;20412;-61
2024/02/23 11:34:55;;;;;;;1.58;0.60;;;;;;;;;;5091532;28;20044;-60
2024/02/23 11:37:24;;;;;;;1.17;0.52;;;;;;;;;;5090297;28;20538;-63
2024/02/23 11:39:52;;;;;;;0.95;0.70;;;;;;;;;;5088576;28;20055;-62
2024/02/23 11:42:21;;;;;;;0.50;0.50;;;;;;;;;;5090939;28;20056;-59
2024/02/23 11:44:49;;;;;;;1.23;0.70;;;;;;;;;;5088006;28;20117;-62
2024/02/23 11:47:18;;;;;;;0.70;0.70;;;;;;;;;;5086706;28;20044;-59
2024/02/23 11:49:47;;;;;;;0.90;0.50;;;;;;;;;;5086119;28;20232;-60
2024/02/23 11:52:16;;;;;;;1.95;0.70;;;;;;;;;;5086945;28;20554;-60
2024/02/23 11:54:46;;;;;;;0.55;0.50;;;;;;;;;;5090368;28;20063;-60
2024/02/23 11:57:15;;;;;;;0.80;0.50;;;;;;;;;;5080359;28;20094;-60
2024/02/23 11:59:43;;;;;;;1.17;0.50;;;;;;;;;;5086909;28;20056;-67
2024/02/23 12:02:11;;;;;;;1.65;0.40;;;;;;;;;;5089641;28;20156;-59
2024/02/23 12:04:40;;;;;;;0.50;0.50;;;;;;;;;;5090445;28;20048;-63
2024/02/23 12:07:10;;;;;;;0.75;0.70;;;;;;;;;;5088640;28;20047;-59
2024/02/23 12:09:41;;;;;;;0.50;0.50;;;;;;;;;;5087915;28;20055;-59
2024/02/23 12:12:10;;;;;;;0.50;0.50;;;;;;;;;;5091076;28;20457;-62
2024/02/23 12:14:38;;;;;;;0.40;0.40;;;;;;;;;;5092560;28;20050;-63
2024/02/23 12:17:09;;;;;;;1.10;0.82;;;;;;;;;;5084898;28;20052;-61
2024/02/23 12:19:40;;;;;;;0.75;0.40;;;;;;;;;;5087592;28;20484;-60
2024/02/23 12:22:11;;;;;;;1.38;0.50;;;;;;;;;;5085585;28;20060;-62
2024/02/23 12:24:41;;;;;;;0.40;0.40;;;;;;;;;;5088113;28;20040;-62
2024/02/23 12:27:10;;;;;;;0.47;0.47;;;;;;;;;;5088971;28;20119;-65
2024/02/23 12:29:38;;;;;;;0.50;0.50;;;;;;;;;;5089171;28;20225;-64
2024/02/23 12:32:07;;;;;;;0.95;0.52;;;;;;;;;;5086842;28;20047;-62
2024/02/23 12:34:36;;;;;;;0.47;0.47;;;;;;;;;;5094473;28;20067;-62
2024/02/23 12:37:05;;;;;;;1.00;0.50;;;;;;;;;;5090524;28;20093;-63
2024/02/23 12:39:35;;;;;;;0.50;0.50;;;;;;;;;;5090442;28;20052;-63
2024/02/23 12:42:04;;;;;;;0.40;0.40;;;;;;;;;;5088496;28;20093;-61
2024/02/23 12:44:32;;;;;;;0.50;0.50;;;;;;;;;;5083740;28;20040;-63
2024/02/23 12:47:01;;;;;;;0.45;0.40;;;;;;;;;;5088681;28;20043;-63
2024/02/23 12:49:29;;;;;;;0.40;0.40;;;;;;;;;;5087551;28;20047;-62
2024/02/23 12:51:58;;;;;;;0.57;0.40;;;;;;;;;;5089381;28;20483;-63
2024/02/23 12:54:26;;;;;;;0.77;0.50;;;;;;;;;;5091712;28;20717;-61
2024/02/23 12:56:56;;;;;;;0.40;0.40;;;;;;;;;;5089475;28;20101;-60
2024/02/23 12:59:25;;;;;;;0.40;0.40;;;;;;;;;;5087206;28;20096;-61
2024/02/23 13:01:53;;;;;;;0.40;0.40;;;;;;;;;;5087098;28;20051;-60
2024/02/23 13:04:22;;;;;;;0.40;0.40;;;;;;;;;;5088356;28;20051;-63
2024/02/23 13:06:50;;;;;;;0.50;0.50;;;;;;;;;;5084495;28;20044;-67
2024/02/23 13:09:19;;;;;;;0.40;0.40;;;;;;;;;;5079181;28;20123;-64
2024/02/23 13:11:47;;;;;;;0.80;0.50;;;;;;;;;;5075481;28;20056;-61
2024/02/23 13:14:17;;;;;;;0.40;0.40;;;;;;;;;;5076360;28;20075;-64
2024/02/23 13:16:46;;;;;;;0.40;0.40;;;;;;;;;;5074300;28;20060;-61
2024/02/23 13:19:14;;;;;;;1.52;0.50;;;;;;;;;;5068085;28;20036;-61
2024/02/23 13:21:43;;;;;;;0.45;0.45;;;;;;;;;;5067143;28;20101;-61
2024/02/23 13:24:11;;;;;;;0.70;0.70;;;;;;;;;;5069318;28;20093;-62
2024/02/23 13:26:40;;;;;;;0.85;0.50;;;;;;;;;;5067777;28;20079;-65
2024/02/23 13:29:08;;;;;;;1.95;0.40;;;;;;;;;;5069558;28;20064;-62
2024/02/23 13:31:39;;;;;;;0.43;0.43;;;;;;;;;;5071539;28;20507;-63
2024/02/23 13:34:09;;;;;;;2.08;0.57;;;;;;;;;;5068330;28;20055;-60
2024/02/23 13:36:38;;;;;;;0.40;0.40;;;;;;;;;;5076101;28;20484;-60
2024/02/23 13:39:07;;;;;;;0.70;0.50;;;;;;;;;;5068555;28;20161;-62
2024/02/23 13:41:36;;;;;;;2.72;0.40;;;;;;;;;;5078735;28;20051;-62
2024/02/23 13:44:04;;;;;;;0.40;0.40;;;;;;;;;;5080277;28;20056;-60
2024/02/23 13:46:33;;;;;;;0.40;0.40;;;;;;;;;;5075780;28;20041;-61
2024/02/23 13:49:07;;;;;;;0.40;0.40;;;;;;;;;;5075473;28;20041;-60
2024/02/23 13:51:35;;;;;;;0.38;0.38;;;;;;;;;;5073701;28;20124;-61
2024/02/23 13:54:04;;;;;;;0.50;0.50;;;;;;;;;;5068602;28;20040;-61
2024/02/23 13:56:32;;;;;;;2.50;0.50;;;;;;;;;;5070926;28;20048;-62
2024/02/23 13:59:01;;;;;;;0.40;0.40;;;;;;;;;;5074277;28;20047;-61
2024/02/23 14:01:29;;;;;;;0.40;0.40;;;;;;;;;;5071999;28;20044;-60
2024/02/23 14:03:57;;;;;;;0.50;0.43;;;;;;;;;;5069290;28;20393;-61
2024/02/23 14:06:27;;;;;;;0.40;0.40;;;;;;;;;;5067420;28;20044;-63
2024/02/23 14:08:56;;;;;;;1.60;0.45;;;;;;;;;;5063426;28;20068;-61
2024/02/23 14:11:24;;;;;;;1.88;0.40;;;;;;;;;;5071869;28;20114;-60
2024/02/23 14:13:53;;;;;;;4.03;0.50;;;;;;;;;;5071549;28;20417;-61
2024/02/23 14:16:23;;;;;;;0.50;0.50;;;;;;;;;;5072373;28;20044;-61
2024/02/23 14:18:51;;;;;;;0.40;0.40;;;;;;;;;;5069120;28;20402;-61
2024/02/23 14:21:21;;;;;;;0.60;0.50;;;;;;;;;;5070737;28;20036;-64
2024/02/23 14:23:51;;;;;;;0.40;0.40;;;;;;;;;;5081411;28;20072;-61
2024/02/23 14:26:19;;;;;;;0.40;0.40;;;;;;;;;;5072913;28;20117;-63
2024/02/23 14:28:48;;;;;;;1.65;0.40;;;;;;;;;;5062837;28;20060;-64
2024/02/23 14:31:17;;;;;;;0.40;0.40;;;;;;;;;;5066535;28;20045;-60
2024/02/23 14:33:45;;;;;;;0.45;0.45;;;;;;;;;;5074214;28;20052;-65
2024/02/23 14:36:15;;;;;;;0.40;0.40;;;;;;;;;;5072768;28;20036;-61
2024/02/23 14:38:44;;;;;;;0.40;0.40;;;;;;;;;;5070920;28;20763;-60
2024/02/23 14:41:13;;;;;;;0.77;0.40;;;;;;;;;;5081628;28;20494;-61
2024/02/23 14:43:42;;;;;;;0.40;0.40;;;;;;;;;;5070305;28;20118;-62
2024/02/23 14:46:10;;;;;;;0.50;0.50;;;;;;;;;;5072968;28;20040;-63
2024/02/23 14:48:39;;;;;;;0.40;0.40;;;;;;;;;;5069138;28;20040;-60
2024/02/23 14:51:09;;;;;;;0.63;0.50;;;;;;;;;;5077834;28;20456;-60
2024/02/23 14:53:38;;;;;;;0.60;0.60;;;;;;;;;;5071001;28;20485;-61